Big Piney, WY weather

Big Piney-Marbleton Airport (AMOS), Big Piney, WY: 3/26/2015 20:53
Visibility10 statute milesclear sky
View 7-Day Forecast
Area Summary
Sky/CloudsSky Clear
Weather [last 24 hours]None
Pressure30.33 in.Hg (1027 hPa)
3-hour Pressure Tendency0.02953 in.Hg (1 hPa) Increasing, then steady, or increasing then increasing more slowly
Dew Point27 F (-2.8 C)
Relative Humidity64.3 %
Temperature37.9 F (3.3 C)red thermometer
Wind Chill30.9 F (-0.622 C)
Reading TimeMinimum to Maximum Temperature
6-hr ending 3/26@17:5348.9 F to 55 F (9.4 C to 12.8 C)
6-hr ending 3/26@11:5315.1 F to 50 F (-9.4 C to 10 C)
6-hr ending 3/26@05:5316 F to 25 F (-8.9 C to -3.9 C)
6-hr ending 3/25@23:5321 F to 39.9 F (-6.1 C to 4.4 C)
24-hr ending 3/26@00:5318 F to 44.1 F (-7.8 C to 6.7 C)
Wind10.4 MPH (9 KT) green arrow pointing 315 degrees
Wind FromNorthwest (320 Degrees)
Rolling 24-hr Peak Wind40.3 MPH (35 KT) on 3/26@15:48
Rolling 24-hr Peak Wind FromNorth (350 Degrees)
Twilight Begins06:42Sunshine Yesterday
Sunrise07:11N/A
Sunset19:42
Twilight Ends20:10
METARKBPI 270253Z AUTO 32009KT 10SM CLR 03/M03 A3033 RMK AO2 SLP273 T00331028 51010
Tags: